createdAt,value
2023-03-20T00:02:04.631Z,9.77
2023-03-20T00:04:32.661Z,8.93
2023-03-20T00:07:00.559Z,9.33
2023-03-20T00:09:28.422Z,9.00
2023-03-20T00:11:57.161Z,8.90
2023-03-20T00:14:27.261Z,11.23
2023-03-20T00:16:55.104Z,11.27
2023-03-20T00:19:24.685Z,9.60
2023-03-20T00:21:53.555Z,9.67
2023-03-20T00:24:21.788Z,10.37
2023-03-20T00:26:51.490Z,10.17
2023-03-20T00:29:23.014Z,9.37
2023-03-20T00:31:52.462Z,9.93
2023-03-20T00:34:23.537Z,10.47
2023-03-20T00:36:52.139Z,9.23
2023-03-20T00:39:20.036Z,9.27
2023-03-20T00:41:51.585Z,9.47
2023-03-20T00:44:23.329Z,9.50
2023-03-20T00:46:55.851Z,9.27
2023-03-20T00:49:28.129Z,11.13
2023-03-20T00:51:59.361Z,9.50
2023-03-20T00:54:27.200Z,8.40
2023-03-20T00:56:59.008Z,9.90
2023-03-20T00:59:30.071Z,9.30
2023-03-20T01:01:59.748Z,8.43
2023-03-20T01:04:32.470Z,8.73
2023-03-20T01:07:01.694Z,8.83
2023-03-20T01:09:29.656Z,8.27
2023-03-20T01:11:57.708Z,8.93
2023-03-20T01:14:26.662Z,8.93
2023-03-20T01:16:54.601Z,9.90
2023-03-20T01:19:23.946Z,8.87
2023-03-20T01:21:51.898Z,9.07
2023-03-20T01:24:19.745Z,7.83
2023-03-20T01:26:47.885Z,8.20
2023-03-20T01:29:20.160Z,8.17
2023-03-20T01:31:48.476Z,9.47
2023-03-20T01:34:17.462Z,8.30
2023-03-20T01:36:51.361Z,8.10
2023-03-20T01:39:21.729Z,7.37
2023-03-20T01:41:50.999Z,8.17
2023-03-20T01:44:22.292Z,8.17
2023-03-20T01:47:00.353Z,7.63
2023-03-20T01:50:17.491Z,7.50
2023-03-20T01:52:46.074Z,7.53
2023-03-20T01:55:13.984Z,7.43
2023-03-20T01:57:42.094Z,7.73
2023-03-20T02:00:14.810Z,7.97
2023-03-20T02:02:46.373Z,7.73
2023-03-20T02:05:17.324Z,7.87
2023-03-20T02:07:48.622Z,8.00
2023-03-20T02:10:18.533Z,7.77
2023-03-20T02:12:47.476Z,9.23
2023-03-20T02:15:17.980Z,7.37
2023-03-20T02:17:47.600Z,8.20
2023-03-20T02:20:28.694Z,8.23
2023-03-20T02:23:38.506Z,8.40
2023-03-20T02:26:28.185Z,7.60
2023-03-20T02:29:28.630Z,7.07
2023-03-20T02:32:20.825Z,6.87
2023-03-20T02:35:15.200Z,7.47
2023-03-20T02:38:09.195Z,6.47
2023-03-20T02:40:45.929Z,6.43
2023-03-20T02:43:22.050Z,7.10
2023-03-20T02:45:56.532Z,6.20
2023-03-20T02:48:34.951Z,7.20
2023-03-20T02:51:11.096Z,6.93
2023-03-20T02:53:51.460Z,5.43
2023-03-20T02:56:26.062Z,5.00
2023-03-20T02:59:01.331Z,5.07
2023-03-20T03:01:34.112Z,5.03
2023-03-20T03:04:06.832Z,5.00
2023-03-20T03:06:37.725Z,6.83
2023-03-20T03:09:13.112Z,4.67
2023-03-20T03:11:46.065Z,6.37
2023-03-20T03:14:20.710Z,6.83
2023-03-20T03:16:50.418Z,6.23
2023-03-20T03:19:23.179Z,6.07
2023-03-20T03:21:51.835Z,5.07
2023-03-20T03:24:39.816Z,5.73
2023-03-20T03:27:17.515Z,5.10
2023-03-20T03:29:51.244Z,5.77
2023-03-20T03:32:31.115Z,4.43
2023-03-20T03:35:00.787Z,4.67
2023-03-20T03:37:41.885Z,5.00
2023-03-20T03:40:19.665Z,5.63
2023-03-20T03:42:56.783Z,5.53
2023-03-20T03:45:31.050Z,9.37
2023-03-20T03:48:04.412Z,6.63
2023-03-20T03:50:38.125Z,5.87
2023-03-20T03:53:13.213Z,5.57
2023-03-20T03:55:45.976Z,5.27
2023-03-20T03:58:18.819Z,5.50
2023-03-20T04:00:50.669Z,5.77
2023-03-20T04:03:22.798Z,6.07
2023-03-20T04:05:54.335Z,5.53
2023-03-20T04:08:22.198Z,6.43
2023-03-20T04:10:51.491Z,5.87
2023-03-20T04:13:19.327Z,5.57
2023-03-20T04:15:47.331Z,6.07
2023-03-20T04:18:16.731Z,5.30
2023-03-20T04:20:44.664Z,5.00
2023-03-20T04:23:12.582Z,5.43
2023-03-20T04:25:40.477Z,5.10
2023-03-20T04:28:11.635Z,4.90
2023-03-20T04:30:39.660Z,4.97
2023-03-20T04:33:07.769Z,4.80
2023-03-20T04:35:36.215Z,4.43
2023-03-20T04:38:04.425Z,5.67
2023-03-20T04:40:32.662Z,5.13
2023-03-20T04:43:00.541Z,5.07
2023-03-20T04:45:29.862Z,4.90
2023-03-20T04:47:57.744Z,4.97
2023-03-20T04:50:25.625Z,5.03
2023-03-20T04:52:53.502Z,5.60
2023-03-20T04:55:22.466Z,5.07
2023-03-20T04:57:50.788Z,4.97
2023-03-20T05:00:19.551Z,5.50
2023-03-20T05:02:48.834Z,6.07
2023-03-20T05:05:16.806Z,5.50
2023-03-20T05:07:44.654Z,6.40
2023-03-20T05:10:12.859Z,5.90
2023-03-20T05:12:40.755Z,6.30
2023-03-20T05:15:09.810Z,6.90
2023-03-20T05:17:37.809Z,6.57
2023-03-20T05:20:08.692Z,6.43
2023-03-20T05:22:36.993Z,6.67
2023-03-20T05:25:05.157Z,5.50
2023-03-20T05:27:33.022Z,5.60
2023-03-20T05:30:01.038Z,5.20
2023-03-20T05:32:28.918Z,4.60
2023-03-20T05:34:56.777Z,5.03
2023-03-20T05:37:25.974Z,5.53
2023-03-20T05:39:53.819Z,5.43
2023-03-20T05:42:21.647Z,5.63
2023-03-20T05:44:49.484Z,5.57
2023-03-20T05:47:17.425Z,5.47
2023-03-20T05:49:45.421Z,4.77
2023-03-20T05:52:13.454Z,5.97
2023-03-20T05:54:42.722Z,4.70
2023-03-20T05:57:10.585Z,8.63
2023-03-20T05:59:38.429Z,6.90
2023-03-20T06:02:06.593Z,7.77
2023-03-20T06:04:35.045Z,9.10
2023-03-20T06:07:02.989Z,8.43
2023-03-20T06:09:31.005Z,8.87
2023-03-20T06:12:00.297Z,7.77
2023-03-20T06:14:28.211Z,7.40
2023-03-20T06:16:57.187Z,7.13
2023-03-20T06:19:25.103Z,7.50
2023-03-20T06:21:53.073Z,7.10
2023-03-20T06:24:21.079Z,8.77
2023-03-20T06:26:48.924Z,8.73
2023-03-20T06:29:18.194Z,8.07
2023-03-20T06:31:46.387Z,8.33
2023-03-20T06:34:14.332Z,9.07
2023-03-20T06:36:44.677Z,8.47
2023-03-20T06:39:13.153Z,8.27
2023-03-20T06:41:41.090Z,7.17
2023-03-20T06:44:08.915Z,8.87
2023-03-20T06:46:38.280Z,6.53
2023-03-20T06:49:06.348Z,6.73
2023-03-20T06:51:34.198Z,7.30
2023-03-20T06:54:02.233Z,8.43
2023-03-20T06:56:30.098Z,7.23
2023-03-20T06:58:58.086Z,10.10
2023-03-20T07:01:26.273Z,7.50
2023-03-20T07:03:55.842Z,7.63
2023-03-20T07:06:23.721Z,8.10
2023-03-20T07:08:53.047Z,7.57
2023-03-20T07:11:21.082Z,8.33
2023-03-20T07:13:50.016Z,7.33
2023-03-20T07:16:18.129Z,7.47
2023-03-20T07:18:46.064Z,6.87
2023-03-20T07:21:20.115Z,6.40
2023-03-20T07:23:48.123Z,6.90
2023-03-20T07:26:16.112Z,6.73
2023-03-20T07:28:43.974Z,6.67
2023-03-20T07:31:20.588Z,6.70
2023-03-20T07:33:48.575Z,7.53
2023-03-20T07:36:17.811Z,7.53
2023-03-20T07:38:45.987Z,7.80
2023-03-20T07:41:14.132Z,7.60
2023-03-20T07:43:44.550Z,8.53
2023-03-20T07:46:12.803Z,7.83
2023-03-20T07:48:41.119Z,7.93
2023-03-20T07:51:09.131Z,7.93
2023-03-20T07:53:38.384Z,7.77
2023-03-20T07:56:06.907Z,8.07
2023-03-20T07:58:34.761Z,7.03
2023-03-20T08:01:03.648Z,7.30
2023-03-20T08:03:31.785Z,7.63
2023-03-20T08:05:59.696Z,7.37
2023-03-20T08:08:28.159Z,7.90
2023-03-20T08:10:57.517Z,7.63
2023-03-20T08:13:25.470Z,7.77
2023-03-20T08:15:53.426Z,8.03
2023-03-20T08:18:22.493Z,7.77
2023-03-20T08:20:51.433Z,7.13
2023-03-20T08:23:20.936Z,8.00
2023-03-20T08:25:49.443Z,7.90
2023-03-20T08:28:19.095Z,7.90
2023-03-20T08:30:47.574Z,7.80
2023-03-20T08:33:16.773Z,7.37
2023-03-20T08:35:45.178Z,7.90
2023-03-20T08:38:14.769Z,8.23
2023-03-20T08:40:42.930Z,8.20
2023-03-20T08:43:11.013Z,7.67
2023-03-20T08:45:40.417Z,8.83
2023-03-20T08:48:08.766Z,8.10
2023-03-20T08:50:37.072Z,8.57
2023-03-20T08:53:05.320Z,8.33
2023-03-20T08:55:33.548Z,8.50
2023-03-20T08:58:01.495Z,8.63
2023-03-20T09:00:29.695Z,8.63
2023-03-20T09:02:58.941Z,7.83
2023-03-20T09:05:26.923Z,7.20
2023-03-20T09:07:54.756Z,6.80
2023-03-20T09:10:23.518Z,6.70
2023-03-20T09:12:51.401Z,7.00
2023-03-20T09:15:19.382Z,6.73
2023-03-20T09:17:47.257Z,6.33
2023-03-20T09:20:16.766Z,6.80
2023-03-20T09:22:45.501Z,7.30
2023-03-20T09:25:13.929Z,6.47
2023-03-20T09:27:42.210Z,7.03
2023-03-20T09:30:12.758Z,6.63
2023-03-20T09:32:40.632Z,6.30
2023-03-20T09:35:08.931Z,7.63
2023-03-20T09:37:38.189Z,6.83
2023-03-20T09:40:07.153Z,8.47
2023-03-20T09:42:48.973Z,7.27
2023-03-20T09:45:25.496Z,7.07
2023-03-20T09:48:03.538Z,5.80
2023-03-20T09:50:35.774Z,5.50
2023-03-20T09:53:11.506Z,5.50
2023-03-20T09:55:41.727Z,5.03
2023-03-20T09:58:14.898Z,5.30
2023-03-20T10:00:46.878Z,5.23
2023-03-20T10:03:20.266Z,4.77
2023-03-20T10:05:53.569Z,4.80
2023-03-20T10:08:27.320Z,4.60
2023-03-20T10:11:03.500Z,3.83
2023-03-20T10:13:48.322Z,3.87
2023-03-20T10:16:23.610Z,3.93
2023-03-20T10:19:01.343Z,4.20
2023-03-20T10:21:39.299Z,3.70
2023-03-20T10:24:19.667Z,4.40
2023-03-20T10:26:52.750Z,4.17
2023-03-20T10:29:31.725Z,3.97
2023-03-20T10:32:07.337Z,3.37
2023-03-20T10:34:49.639Z,3.40
2023-03-20T10:37:30.636Z,3.70
2023-03-20T10:40:17.510Z,3.30
2023-03-20T10:42:48.908Z,3.13
2023-03-20T10:45:28.757Z,3.03
2023-03-20T10:47:59.169Z,3.15
2023-03-20T10:50:32.296Z,3.42
2023-03-20T10:53:02.948Z,3.22
2023-03-20T10:55:36.077Z,2.47
2023-03-20T10:58:14.500Z,2.20
2023-03-20T11:00:42.508Z,2.50
2023-03-20T11:03:20.208Z,2.80
2023-03-20T11:06:06.647Z,3.10
2023-03-20T11:08:40.487Z,2.40
2023-03-20T11:11:10.536Z,2.10
2023-03-20T11:13:41.582Z,1.60
2023-03-20T11:16:20.539Z,1.63
2023-03-20T11:18:50.626Z,1.67
2023-03-20T11:21:22.788Z,1.80
2023-03-20T11:23:51.672Z,1.90
2023-03-20T11:26:29.389Z,3.33
2023-03-20T11:29:00.532Z,2.90
2023-03-20T11:31:33.466Z,2.00
2023-03-20T11:34:12.176Z,1.50
2023-03-20T11:36:41.381Z,0.80
2023-03-20T11:39:14.903Z,1.10
2023-03-20T11:41:49.096Z,1.40
2023-03-20T11:44:27.802Z,0.82
2023-03-20T11:46:57.729Z,1.23
2023-03-20T11:49:27.728Z,0.93
2023-03-20T11:52:00.240Z,1.50
2023-03-20T11:54:28.994Z,1.37
2023-03-20T11:56:59.796Z,1.20
2023-03-20T11:59:33.172Z,0.97
2023-03-20T12:02:03.472Z,1.90
2023-03-20T12:04:33.985Z,1.50
2023-03-20T12:07:06.867Z,2.60
2023-03-20T12:09:43.560Z,1.17
2023-03-20T12:12:20.578Z,1.30
2023-03-20T12:14:55.190Z,0.93
2023-03-20T12:17:36.479Z,2.40
2023-03-20T12:20:13.130Z,2.47
2023-03-20T12:22:51.175Z,2.17
2023-03-20T12:25:25.206Z,1.83
2023-03-20T12:28:03.235Z,4.60
2023-03-20T12:30:39.496Z,1.40
2023-03-20T12:33:13.808Z,3.20
2023-03-20T12:35:47.730Z,2.00
2023-03-20T12:38:25.685Z,1.20
2023-03-20T12:40:59.504Z,2.40
2023-03-20T12:43:37.912Z,1.50
2023-03-20T12:46:12.804Z,1.00
2023-03-20T12:48:53.666Z,1.07
2023-03-20T12:51:30.099Z,0.60
2023-03-20T12:54:15.190Z,1.73
2023-03-20T12:56:59.906Z,0.90
2023-03-20T12:59:41.351Z,0.50
2023-03-20T13:02:25.597Z,1.17
2023-03-20T13:05:01.317Z,1.00
2023-03-20T13:07:44.617Z,0.77
2023-03-20T13:10:20.716Z,1.70
2023-03-20T13:13:01.833Z,0.87
2023-03-20T13:15:44.168Z,1.00
2023-03-20T13:18:21.983Z,1.50
2023-03-20T13:20:53.148Z,1.90
2023-03-20T13:23:29.048Z,1.00
2023-03-20T13:26:09.419Z,1.53
2023-03-20T13:28:42.895Z,1.23
2023-03-20T13:31:25.559Z,1.20
2023-03-20T13:34:02.036Z,1.27
2023-03-20T13:36:57.415Z,1.37
2023-03-20T13:39:30.904Z,0.87
2023-03-20T13:42:01.928Z,0.70
2023-03-20T13:44:32.718Z,0.47
2023-03-20T13:47:06.761Z,0.57
2023-03-20T13:49:38.542Z,0.80
2023-03-20T13:52:12.680Z,0.83
2023-03-20T13:54:59.583Z,0.70
2023-03-20T13:57:51.639Z,0.63
2023-03-20T14:00:28.483Z,0.60
2023-03-20T14:03:12.971Z,1.57
2023-03-20T14:05:42.669Z,1.40
2023-03-20T14:08:25.702Z,0.90
2023-03-20T14:10:57.218Z,0.90
2023-03-20T14:13:27.897Z,0.80
2023-03-20T14:15:58.333Z,0.83
2023-03-20T14:18:27.697Z,1.10
2023-03-20T14:20:58.494Z,1.63
2023-03-20T14:23:36.171Z,1.07
2023-03-20T14:26:10.030Z,1.07
2023-03-20T14:28:55.205Z,1.00
2023-03-20T14:31:26.319Z,1.13
2023-03-20T14:34:10.818Z,0.90
2023-03-20T14:36:53.521Z,0.67
2023-03-20T14:39:34.103Z,1.40
2023-03-20T14:42:16.974Z,0.40
2023-03-20T14:44:59.871Z,0.63
2023-03-20T14:47:45.506Z,0.83
2023-03-20T14:50:23.453Z,3.20
2023-03-20T14:53:00.398Z,3.40
2023-03-20T14:55:34.216Z,1.50
2023-03-20T14:58:07.050Z,2.37
2023-03-20T15:00:44.727Z,1.43
2023-03-20T15:03:16.596Z,0.57
2023-03-20T15:05:47.882Z,2.20
2023-03-20T15:08:23.236Z,1.30
2023-03-20T15:10:54.972Z,0.73
2023-03-20T15:13:24.737Z,0.63
2023-03-20T15:15:55.509Z,0.90
2023-03-20T15:18:24.755Z,1.20
2023-03-20T15:20:54.992Z,0.83
2023-03-20T15:23:22.880Z,1.27
2023-03-20T15:25:51.858Z,0.97
2023-03-20T15:28:23.727Z,0.87
2023-03-20T15:30:54.848Z,2.80
2023-03-20T15:33:27.839Z,1.83
2023-03-20T15:35:57.207Z,1.43
2023-03-20T15:38:36.223Z,1.07
2023-03-20T15:41:06.428Z,1.57
2023-03-20T15:43:35.771Z,1.50
2023-03-20T15:46:20.678Z,1.10
2023-03-20T15:48:49.746Z,0.90
2023-03-20T15:51:20.014Z,0.97
2023-03-20T15:53:49.783Z,1.10
2023-03-20T15:56:20.039Z,0.90
2023-03-20T15:58:51.909Z,1.30
2023-03-20T16:01:21.569Z,1.60
2023-03-20T16:03:50.372Z,1.97
2023-03-20T16:06:22.318Z,2.87
2023-03-20T16:08:59.094Z,2.10
2023-03-20T16:11:35.974Z,2.10
2023-03-20T16:14:04.679Z,1.97
2023-03-20T16:16:37.429Z,2.03
2023-03-20T16:19:06.479Z,1.63
2023-03-20T16:21:38.296Z,1.80
2023-03-20T16:24:10.003Z,3.03
2023-03-20T16:26:41.518Z,3.17
2023-03-20T16:29:14.611Z,2.90
2023-03-20T16:31:48.676Z,2.10
2023-03-20T16:34:21.855Z,2.87
2023-03-20T16:36:54.564Z,3.00
2023-03-20T16:39:24.775Z,2.93
2023-03-20T16:42:11.293Z,2.23
2023-03-20T16:44:41.930Z,2.30
2023-03-20T16:47:23.476Z,2.33
2023-03-20T16:50:20.860Z,2.50
2023-03-20T16:52:53.723Z,2.50
2023-03-20T16:55:28.163Z,5.30
2023-03-20T16:57:59.407Z,3.37
2023-03-20T17:00:30.776Z,5.47
2023-03-20T17:03:08.418Z,3.83
2023-03-20T17:05:48.118Z,4.20
2023-03-20T17:08:22.987Z,3.17
2023-03-20T17:10:55.945Z,1.77
2023-03-20T17:13:23.990Z,1.80
2023-03-20T17:15:51.826Z,2.00
2023-03-20T17:18:19.817Z,3.57
2023-03-20T17:20:47.642Z,2.70
2023-03-20T17:23:20.632Z,2.80
2023-03-20T17:25:49.447Z,3.00
2023-03-20T17:28:20.928Z,3.20
2023-03-20T17:30:50.455Z,2.13
2023-03-20T17:33:21.015Z,2.30
2023-03-20T17:35:49.200Z,2.10
2023-03-20T17:38:21.467Z,1.93
2023-03-20T17:40:50.257Z,2.10
2023-03-20T17:43:20.101Z,2.30
2023-03-20T17:45:48.691Z,2.47
2023-03-20T17:48:18.367Z,2.40
2023-03-20T17:50:46.713Z,3.37
2023-03-20T17:53:20.245Z,3.10
2023-03-20T17:55:48.453Z,4.40
2023-03-20T17:58:18.359Z,7.70
2023-03-20T18:00:46.337Z,4.93
2023-03-20T18:03:15.408Z,4.40
2023-03-20T18:05:43.797Z,4.30
2023-03-20T18:08:16.117Z,5.40
2023-03-20T18:10:45.520Z,6.93
2023-03-20T18:13:13.381Z,5.00
2023-03-20T18:15:42.015Z,6.00
2023-03-20T18:18:10.289Z,5.27
2023-03-20T18:20:41.148Z,4.00
2023-03-20T18:23:09.292Z,4.40
2023-03-20T18:25:37.579Z,6.37
2023-03-20T18:28:12.455Z,5.43
2023-03-20T18:30:42.448Z,5.43
2023-03-20T18:33:10.383Z,6.67
2023-03-20T18:35:38.580Z,4.87
2023-03-20T18:38:06.767Z,7.13
2023-03-20T18:40:36.672Z,30.77
2023-03-20T18:43:06.549Z,22.23
2023-03-20T18:45:34.456Z,11.67
2023-03-20T18:48:03.876Z,5.53
2023-03-20T18:50:37.151Z,4.07
2023-03-20T18:53:06.908Z,5.40
2023-03-20T18:55:35.849Z,4.97
2023-03-20T18:58:06.341Z,4.43
2023-03-20T19:00:41.805Z,5.17
2023-03-20T19:03:11.917Z,6.13
2023-03-20T19:05:40.510Z,5.40
2023-03-20T19:08:08.375Z,4.87
2023-03-20T19:10:38.951Z,4.57
2023-03-20T19:13:08.738Z,5.97
2023-03-20T19:15:38.806Z,4.03
2023-03-20T19:18:08.516Z,4.47
2023-03-20T19:20:38.444Z,3.83
2023-03-20T19:23:08.830Z,5.70
2023-03-20T19:25:37.592Z,10.17
2023-03-20T19:28:07.746Z,7.37
2023-03-20T19:30:39.558Z,9.67
2023-03-20T19:33:08.661Z,8.90
2023-03-20T19:36:01.916Z,6.83
2023-03-20T19:38:25.368Z,6.60
2023-03-20T19:40:54.010Z,5.80
2023-03-20T19:43:22.683Z,6.70
2023-03-20T19:45:57.895Z,5.57
2023-03-20T19:48:43.256Z,5.50
2023-03-20T19:51:16.808Z,4.77
2023-03-20T19:53:46.095Z,4.50
2023-03-20T19:56:15.339Z,4.57
2023-03-20T19:58:44.367Z,5.07
2023-03-20T20:01:17.545Z,4.93
2023-03-20T20:03:46.243Z,5.30
2023-03-20T20:06:15.928Z,5.17
2023-03-20T20:08:48.755Z,5.50
2023-03-20T20:11:17.548Z,6.03
2023-03-20T20:14:07.264Z,6.90
2023-03-20T20:16:36.519Z,5.70
2023-03-20T20:19:04.802Z,5.33
2023-03-20T20:24:20.734Z,5.07
2023-03-20T20:26:54.887Z,5.07
2023-03-20T20:29:25.673Z,5.80
2023-03-20T20:31:54.964Z,5.47
2023-03-20T20:35:22.476Z,6.03
2023-03-20T20:39:59.284Z,6.10
2023-03-20T20:42:27.199Z,5.33
2023-03-20T20:44:55.237Z,5.07
2023-03-20T20:47:24.508Z,5.40
2023-03-20T20:49:52.445Z,5.60
2023-03-20T20:52:20.330Z,5.40
2023-03-20T20:54:48.422Z,6.07
2023-03-20T20:57:16.445Z,6.37
2023-03-20T20:59:44.332Z,5.10
2023-03-20T21:02:13.043Z,5.60
2023-03-20T21:04:43.740Z,5.70
2023-03-20T21:07:13.463Z,6.67
2023-03-20T21:09:41.881Z,6.00
2023-03-20T21:12:22.704Z,5.07
2023-03-20T21:14:58.856Z,5.23
2023-03-20T21:17:27.149Z,5.80
2023-03-20T21:19:56.798Z,5.00
2023-03-20T21:22:24.998Z,6.30
2023-03-20T21:25:00.702Z,9.07
2023-03-20T21:27:35.248Z,9.37
2023-03-20T21:30:03.727Z,9.43
2023-03-20T21:32:36.642Z,11.23
2023-03-20T21:35:09.416Z,11.47
2023-03-20T21:40:25.984Z,11.47
2023-03-20T21:42:53.895Z,11.93
2023-03-20T21:48:42.797Z,9.27
2023-03-20T21:54:46.109Z,7.00
2023-03-20T21:57:17.599Z,7.43
2023-03-20T22:00:05.043Z,6.07
2023-03-20T22:02:21.355Z,6.40
2023-03-20T22:05:53.029Z,6.70
2023-03-20T22:14:17.579Z,6.50
2023-03-20T22:20:03.027Z,6.80
2023-03-20T22:22:34.355Z,6.73
2023-03-20T22:25:31.729Z,6.83
2023-03-20T22:28:02.676Z,7.27
2023-03-20T22:45:19.695Z,7.53
2023-03-20T22:47:06.613Z,7.73
2023-03-20T22:49:34.535Z,7.10
2023-03-20T22:52:15.349Z,7.23
2023-03-20T22:54:50.111Z,7.83
2023-03-20T22:57:19.833Z,7.10
2023-03-20T22:59:48.347Z,7.93
2023-03-20T23:02:16.156Z,7.50
2023-03-20T23:04:43.981Z,7.70
2023-03-20T23:07:11.939Z,7.80
2023-03-20T23:09:39.736Z,7.47
2023-03-20T23:12:07.989Z,7.80
2023-03-20T23:14:45.333Z,7.20
2023-03-20T23:17:13.889Z,7.73
2023-03-20T23:19:48.844Z,8.67
2023-03-20T23:22:20.057Z,7.87
2023-03-20T23:24:48.120Z,8.03
2023-03-20T23:27:17.299Z,7.50
2023-03-20T23:29:46.532Z,7.70
2023-03-20T23:32:14.572Z,8.40
2023-03-20T23:34:42.417Z,7.80
2023-03-20T23:37:10.316Z,7.80
2023-03-20T23:39:38.217Z,7.77
2023-03-20T23:42:17.448Z,7.00
2023-03-20T23:44:57.556Z,8.57
2023-03-20T23:47:38.495Z,8.03
2023-03-20T23:50:20.750Z,7.70
2023-03-20T23:53:01.155Z,8.13
2023-03-20T23:55:41.264Z,8.17
2023-03-20T23:58:09.653Z,8.73
